Aeroporto :
LOGIN :

Iscrizione | Disclaimer

   EN    FR    IT 

 










Sommario :    VFR   VFR Marginale   IFR   IFR Intensivo   IFR Molto Intensivo
Visibilità : 
Base nubi : 
>= 8 km
>= 3000ft
5 / 8 km
1000 / 3000 ft
1500m / 5 km
500 / 1000 ft
800 / 1500m
200 / 500 ft
< 800m
< 200 ft
Simboli :   Temporali  Nebbia  Neve Forte  Precipitazioni Forti  Vento > 20 kt
SIGMETs :   Varie  Temporali  Ghiacco  Turbolenza  Onda orograficha  Ceneri Vulcaniche






- Altitudine del aeroporto : 102 ft
- Codice IATA : KEL


EDHK - Holtenau

ULTIMO METAR :
  • 231120Z 23009KT 9999 -RA BKN009 05/03 Q1002

METARs OBSOLETI :
  • 231050Z 23009KT 9999 -RA BKN007 05/03 Q1003
  • 231020Z 23009KT 9999 -RA BKN007 05/04 Q1004
  • 230950Z 22009KT 9999 -RA BKN007 04/03 Q1004
  • 230920Z 23008KT 9999 -RA BKN009 04/03 Q1005
  • 230850Z 24010KT 210V270 9999 -RA BKN011 04/03 Q1006
  • 230820Z 25015KT 9999 -RA BKN014 04/02 Q1007

TAF AMD TAF EDHK
Valido dal 23 a 09 ore il 23 a 18 ore UTC


230952Z 2309/2318 24010KT 9999 BKN010
TEMPO 2309/2316 4000 -RA BKN008
BECMG 2316/2318 29015G30KT BKN015
TEMPO 2316/2318 SHRA BKN010CB
PROB30
TEMPO 2317/2318 BKN008



MetMap, La meteo Aeronautica in un colpo d'occhio ! - Copyright ORBIFLY Dicembre 2007 - Disclaimer

ORBIFLY MET'MAP TEAM :

Programmazione e sviluppo : Alexandra Zaïnal
Concezione : Baudouin d'Aumeries
Aiuto per la programmazione : Marc-Olivier Méhu
Supporto tecnico e logistico : Manuel Goepfert
Aiuto per la traduzione : Arnaldo La Scala

Contatto : metmap@orbifly.com




FONTI E CREDITI :

   NOAA